Time;durP1;ratioP1;P1;durP2;ratioP2;P2;SDS_P1;SDS_P2;PMS_P1;PMS_P2;Temp;Humidity;BMP_temperature;BMP_pressure;BME280_temperature;BME280_humidity;BME280_pressure;Samples;Min_cycle;Max_cycle;Signal;HPM_P1;HPM_P2
2022/04/22 00:00:38;;;;;;;13.70;9.90;;;;;;;10.39;64.82;99992.01;106222;1274;24259;-75
2022/04/22 00:03:06;;;;;;;17.90;10.80;;;;;;;10.37;64.94;99992.55;106177;1274;22560;-76
2022/04/22 00:05:33;;;;;;;13.80;10.00;;;;;;;10.38;64.79;99989.37;106085;1274;25325;-75
2022/04/22 00:08:00;;;;;;;15.40;10.80;;;;;;;10.40;64.67;99987.93;105898;1277;25171;-74
2022/04/22 00:10:27;;;;;;;16.40;11.10;;;;;;;10.40;64.82;99989.16;105834;1276;25552;-73
2022/04/22 00:12:54;;;;;;;18.80;11.40;;;;;;;10.42;64.82;99994.06;106013;1274;22562;-74
2022/04/22 00:15:20;;;;;;;15.50;11.00;;;;;;;10.44;64.92;99990.00;106035;1274;22549;-72
2022/04/22 00:17:47;;;;;;;14.90;11.10;;;;;;;10.41;65.00;99987.39;105770;1279;25206;-73
2022/04/22 00:20:13;;;;;;;15.30;11.90;;;;;;;10.44;65.04;99988.77;105863;1279;23984;-73
2022/04/22 00:22:41;;;;;;;14.10;10.40;;;;;;;10.42;65.05;99985.79;105527;1279;22538;-72
2022/04/22 00:25:10;;;;;;;17.80;10.80;;;;;;;10.42;65.02;99984.56;105517;1279;22533;-70
2022/04/22 00:27:37;;;;;;;14.60;11.50;;;;;;;10.41;64.94;99986.50;105608;1279;24500;-73
2022/04/22 00:30:09;;;;;;;14.00;11.20;;;;;;;10.41;65.03;99982.46;105601;1279;25252;-74
2022/04/22 00:32:36;;;;;;;14.80;10.40;;;;;;;10.42;65.09;99985.79;105939;1279;27119;-75
2022/04/22 00:35:03;;;;;;;14.30;10.40;;;;;;;10.41;64.97;99988.80;105885;1279;22554;-74
2022/04/22 00:37:29;;;;;;;14.00;11.10;;;;;;;10.40;65.05;99988.12;106337;1274;23039;-73
2022/04/22 00:39:56;;;;;;;15.60;11.80;;;;;;;10.38;65.05;99991.31;106159;1274;22577;-77
2022/04/22 00:42:22;;;;;;;16.60;10.90;;;;;;;10.36;65.15;99991.16;106269;1274;26544;-76
2022/04/22 00:44:48;;;;;;;17.90;11.30;;;;;;;10.36;65.19;99986.77;106019;1274;25512;-76
2022/04/22 00:47:15;;;;;;;16.10;11.20;;;;;;;10.37;65.34;99986.75;106103;1274;25371;-75
2022/04/22 00:49:41;;;;;;;17.00;11.20;;;;;;;10.37;65.23;99988.50;106044;1274;25413;-75
2022/04/22 00:52:08;;;;;;;16.60;9.80;;;;;;;10.36;65.24;99984.64;105967;1273;24323;-74
2022/04/22 00:54:34;;;;;;;21.60;11.80;;;;;;;10.34;65.43;99982.92;106093;1274;23696;-75
2022/04/22 00:57:01;;;;;;;13.30;10.10;;;;;;;10.38;65.52;99984.27;106003;1274;24322;-73
2022/04/22 00:59:31;;;;;;;16.20;10.70;;;;;;;10.39;65.56;99983.90;105919;1274;22560;-77
2022/04/22 01:01:57;;;;;;;17.20;10.50;;;;;;;10.39;65.68;99986.38;105958;1274;25502;-76
2022/04/22 01:09:56;;;;;;;13.80;10.00;;;;;;;10.36;65.72;99982.19;106059;1274;22560;-73
2022/04/22 01:12:26;;;;;;;14.10;10.50;;;;;;;10.35;65.78;99982.03;105997;1274;22639;-76
2022/04/22 01:14:52;;;;;;;13.80;9.60;;;;;;;10.33;65.74;99981.54;106188;1274;25391;-72
2022/04/22 01:17:19;;;;;;;13.60;9.90;;;;;;;10.32;65.81;99982.24;105975;1274;22585;-69
2022/04/22 01:19:45;;;;;;;15.90;10.00;;;;;;;10.30;65.84;99985.10;105800;1274;24415;-69
2022/04/22 01:22:11;;;;;;;13.60;9.70;;;;;;;10.31;65.85;99988.08;105848;1276;22660;-77
2022/04/22 01:24:37;;;;;;;12.20;9.50;;;;;;;10.26;65.84;99983.75;106093;1274;22560;-74
2022/04/22 01:27:06;;;;;;;13.90;9.30;;;;;;;10.22;66.05;99985.73;106266;1274;22555;-71
2022/04/22 01:29:33;;;;;;;13.50;9.00;;;;;;;10.20;66.11;99988.93;106147;1274;22727;-72
2022/04/22 01:32:00;;;;;;;11.20;8.90;;;;;;;10.19;66.40;99986.66;105995;1274;22608;-73
2022/04/22 01:34:27;;;;;;;10.70;8.00;;;;;;;10.22;66.36;99989.77;106137;1274;25320;-71
2022/04/22 01:36:54;;;;;;;11.40;8.40;;;;;;;10.23;66.38;99988.54;106035;1273;25348;-73
2022/04/22 01:39:20;;;;;;;10.60;7.50;;;;;;;10.24;66.47;99985.70;106052;1273;22707;-72
2022/04/22 01:41:46;;;;;;;10.10;7.10;;;;;;;10.23;66.57;99986.06;106180;1273;25530;-73
2022/04/22 01:44:12;;;;;;;9.90;6.80;;;;;;;10.23;66.72;99984.65;106033;1275;22557;-72
2022/04/22 01:46:39;;;;;;;8.10;5.90;;;;;;;10.24;66.75;99983.05;106164;1274;22557;-71
2022/04/22 01:49:05;;;;;;;10.20;6.10;;;;;;;10.23;66.92;99981.84;105986;1274;22628;-72
2022/04/22 01:51:31;;;;;;;11.00;6.30;;;;;;;10.25;66.98;99982.88;106060;1274;24241;-77
2022/04/22 01:53:57;;;;;;;9.40;5.40;;;;;;;10.23;66.91;99980.61;106086;1274;25104;-74
2022/04/22 01:56:24;;;;;;;8.70;5.80;;;;;;;10.16;67.03;99984.22;105990;1274;22541;-75
2022/04/22 01:58:50;;;;;;;8.50;5.20;;;;;;;10.17;67.22;99984.91;106239;1274;22844;-74
2022/04/22 02:01:16;;;;;;;8.10;5.40;;;;;;;10.19;67.18;99982.42;106082;1274;22657;-75
2022/04/22 02:03:42;;;;;;;7.00;4.90;;;;;;;10.21;67.17;99982.39;105988;1276;25330;-72
2022/04/22 02:06:08;;;;;;;5.30;4.70;;;;;;;10.21;67.15;99979.94;105939;1274;25270;-72
2022/04/22 02:08:36;;;;;;;6.20;5.20;;;;;;;10.22;67.30;99976.59;106025;1274;23820;-73
2022/04/22 02:11:04;;;;;;;7.70;5.20;;;;;;;10.21;67.26;99973.77;105766;1274;23316;-71
2022/04/22 02:13:36;;;;;;;7.10;5.40;;;;;;;10.17;67.37;99973.83;106017;1274;24280;-70
2022/04/22 02:16:05;;;;;;;5.90;5.10;;;;;;;10.17;67.63;99975.41;105928;1274;22557;-71
2022/04/22 02:18:31;;;;;;;7.60;4.60;;;;;;;10.19;67.54;99978.57;106360;1274;25321;-73
2022/04/22 02:20:57;;;;;;;5.70;4.40;;;;;;;10.11;67.64;99981.13;106169;1274;22652;-72
2022/04/22 02:23:23;;;;;;;6.50;4.40;;;;;;;10.13;67.75;99982.34;106131;1274;23920;-68
2022/04/22 02:25:49;;;;;;;5.30;4.30;;;;;;;10.12;67.93;99983.05;106135;1274;25401;-67
2022/04/22 02:28:35;;;;;;;4.30;3.80;;;;;;;10.11;67.93;99987.64;105947;1273;22541;-69
2022/04/22 02:31:07;;;;;;;7.30;4.70;;;;;;;10.12;68.09;99986.92;105994;1273;23780;-73
2022/04/22 02:33:35;;;;;;;4.60;4.10;;;;;;;10.13;68.30;99989.38;106047;1274;25252;-72
2022/04/22 02:36:03;;;;;;;5.10;4.40;;;;;;;10.13;68.37;99987.79;106030;1274;22532;-75
2022/04/22 02:38:30;;;;;;;8.80;5.50;;;;;;;10.17;68.34;99991.78;106183;1274;22552;-74
2022/04/22 02:46:30;;;;;;;5.00;4.30;;;;;;;10.13;68.70;99992.36;106075;1273;22547;-72
2022/04/22 02:48:58;;;;;;;3.60;3.00;;;;;;;10.10;68.62;99991.71;106104;1274;24293;-72
2022/04/22 02:51:25;;;;;;;2.60;2.40;;;;;;;10.05;68.52;99997.22;106055;1274;22535;-72
2022/04/22 02:53:53;;;;;;;2.50;2.30;;;;;;;9.98;68.55;99995.70;106194;1274;24232;-73
2022/04/22 02:56:21;;;;;;;3.10;2.80;;;;;;;9.97;68.85;99995.39;106129;1274;25381;-75
2022/04/22 02:58:48;;;;;;;2.80;2.50;;;;;;;9.97;68.98;99995.20;106147;1274;24129;-72
2022/04/22 03:01:15;;;;;;;3.20;2.40;;;;;;;9.98;68.99;99999.08;106005;1274;24221;-76
2022/04/22 03:03:44;;;;;;;2.90;2.60;;;;;;;9.96;68.99;99997.34;106180;1274;24386;-73
2022/04/22 03:06:10;;;;;;;4.40;2.60;;;;;;;9.92;69.08;99994.77;106131;1274;22576;-73
2022/04/22 03:08:37;;;;;;;2.70;2.50;;;;;;;9.91;69.26;99995.29;106194;1274;22540;-78
2022/04/22 03:11:03;;;;;;;3.10;2.80;;;;;;;9.87;69.33;99998.50;106224;1274;22755;-74
2022/04/22 03:13:30;;;;;;;2.80;2.50;;;;;;;9.88;69.54;99998.67;106287;1273;22535;-74
2022/04/22 03:15:58;;;;;;;2.50;2.30;;;;;;;9.92;69.51;100000.55;106312;1274;23889;-74
2022/04/22 03:18:24;;;;;;;3.10;2.40;;;;;;;9.94;69.38;100000.88;106271;1274;22484;-71
2022/04/22 03:20:50;;;;;;;2.60;2.40;;;;;;;9.96;69.51;100001.55;106064;1274;25290;-72
2022/04/22 03:23:16;;;;;;;2.90;2.60;;;;;;;9.98;69.44;100002.60;106172;1273;22561;-74
2022/04/22 03:25:42;;;;;;;4.20;2.70;;;;;;;9.96;69.41;99998.23;106214;1273;23190;-71
2022/04/22 03:28:08;;;;;;;2.80;2.60;;;;;;;9.96;69.38;100003.67;105803;1280;22618;-77
2022/04/22 03:30:37;;;;;;;3.20;2.90;;;;;;;9.92;69.43;100000.20;105835;1278;22567;-74
2022/04/22 03:33:04;;;;;;;2.80;2.30;;;;;;;9.93;69.33;100005.99;105787;1278;25463;-76
2022/04/22 03:35:30;;;;;;;2.90;2.20;;;;;;;9.83;69.37;100002.95;105650;1277;25256;-73
2022/04/22 03:37:56;;;;;;;2.70;2.40;;;;;;;9.78;69.49;100000.20;105739;1279;22569;-74
2022/04/22 03:40:24;;;;;;;2.10;1.90;;;;;;;9.82;69.55;100009.30;105742;1278;22848;-77
2022/04/22 03:42:52;;;;;;;2.30;2.10;;;;;;;9.83;69.64;100002.25;105757;1279;22775;-70
2022/04/22 03:45:20;;;;;;;2.20;2.00;;;;;;;9.85;69.63;99999.05;105693;1279;22775;-72
2022/04/22 03:47:46;;;;;;;3.10;2.30;;;;;;;9.88;69.57;100002.36;106125;1274;25467;-73
2022/04/22 03:50:13;;;;;;;4.40;2.20;;;;;;;9.90;69.56;100002.34;106169;1274;22565;-74
2022/04/22 03:52:39;;;;;;;2.40;2.20;;;;;;;9.88;69.53;100000.43;105897;1274;24300;-70
2022/04/22 03:55:06;;;;;;;2.70;2.30;;;;;;;9.89;69.53;100004.99;105892;1274;25251;-75
2022/04/22 04:00:17;;;;;;;2.70;2.30;;;;;;;9.87;69.58;100011.70;106012;1274;22532;-77
2022/04/22 04:02:43;;;;;;;3.80;2.40;;;;;;;9.85;69.57;100014.90;106138;1274;22559;-70
2022/04/22 04:05:10;;;;;;;2.10;1.90;;;;;;;9.81;69.56;100015.64;106345;1274;24058;-73
2022/04/22 04:07:37;;;;;;;2.20;2.00;;;;;;;9.77;69.62;100020.26;105972;1274;25255;-78
2022/04/22 04:18:19;;;;;;;2.30;2.10;;;;;;;9.70;69.36;100021.04;105981;1274;22562;-78
2022/04/22 04:23:30;;;;;;;2.70;2.40;;;;;;;9.54;69.35;100022.80;106288;1276;22562;-89
2022/04/22 04:25:56;;;;;;;2.10;1.90;;;;;;;9.51;69.51;100025.81;106019;1274;22550;-78
2022/04/22 04:28:23;;;;;;;2.40;2.20;;;;;;;9.51;69.54;100028.10;105861;1277;24193;-81
2022/04/22 04:30:49;;;;;;;2.80;2.10;;;;;;;9.53;69.53;100026.16;105777;1277;24281;-81
2022/04/22 04:33:15;;;;;;;4.50;2.20;;;;;;;9.53;69.38;100027.39;106331;1276;24244;-77
2022/04/22 04:35:46;;;;;;;2.60;2.20;;;;;;;9.55;69.55;100021.02;106193;1273;25326;-78
2022/04/22 04:38:16;;;;;;;2.50;2.10;;;;;;;9.55;69.35;100023.32;106111;1273;22538;-79
2022/04/22 04:40:44;;;;;;;2.80;2.60;;;;;;;9.55;69.39;100017.52;105937;1274;24100;-80
2022/04/22 04:43:10;;;;;;;3.20;2.70;;;;;;;9.58;69.24;100013.78;106014;1273;25377;-80
2022/04/22 04:45:37;;;;;;;3.80;3.30;;;;;;;9.59;69.28;100016.95;105886;1274;22610;-78
2022/04/22 04:48:04;;;;;;;3.40;2.90;;;;;;;9.60;69.05;100014.13;106319;1273;22723;-71
2022/04/22 04:50:33;;;;;;;2.90;2.70;;;;;;;9.62;69.05;100021.13;106098;1274;24212;-77
2022/04/22 04:52:59;;;;;;;4.50;3.50;;;;;;;9.63;68.91;100024.64;106266;1274;22623;-81
2022/04/22 04:55:27;;;;;;;4.50;3.10;;;;;;;9.67;68.78;100032.15;105995;1274;22705;-77
2022/04/22 04:57:53;;;;;;;4.00;3.60;;;;;;;9.70;68.55;100035.11;106039;1274;26488;-76
2022/04/22 05:00:20;;;;;;;4.10;3.70;;;;;;;9.74;68.45;100036.12;106052;1274;24086;-81
2022/04/22 05:02:47;;;;;;;4.30;3.50;;;;;;;9.77;68.29;100039.07;105675;1281;22840;-86
2022/04/22 05:05:14;;;;;;;4.60;4.10;;;;;;;9.78;68.16;100034.83;105457;1281;22658;-81
2022/04/22 05:07:49;;;;;;;4.30;3.90;;;;;;;9.79;67.89;100036.58;105459;1281;204825;-81
2022/04/22 05:10:18;;;;;;;4.70;4.30;;;;;;;9.78;67.83;100045.39;105546;1281;24236;-79
2022/04/22 05:12:46;;;;;;;4.90;4.20;;;;;;;9.81;67.74;100047.65;105670;1281;23930;-80
2022/04/22 05:15:14;;;;;;;5.20;4.30;;;;;;;9.84;67.60;100045.86;105277;1284;22554;-81
2022/04/22 05:17:41;;;;;;;5.40;4.90;;;;;;;9.88;67.54;100043.88;105011;1285;25379;-77
2022/04/22 05:20:09;;;;;;;6.70;5.10;;;;;;;9.86;67.18;100044.95;104890;1280;22543;-79
2022/04/22 05:22:36;;;;;;;5.70;4.20;;;;;;;9.86;67.07;100052.88;105547;1279;25302;-75
2022/04/22 05:25:04;;;;;;;5.10;4.60;;;;;;;9.86;67.12;100054.80;105623;1280;25418;-79
2022/04/22 05:27:31;;;;;;;6.30;5.30;;;;;;;9.85;66.82;100056.05;105603;1279;23931;-78
2022/04/22 05:32:47;;;;;;;7.60;5.00;;;;;;;9.87;66.52;100055.66;105573;1279;25343;-78
2022/04/22 05:35:15;;;;;;;6.10;5.20;;;;;;;9.91;66.44;100056.51;105508;1280;22702;-78
2022/04/22 05:37:53;;;;;;;5.90;5.40;;;;;;;9.98;66.26;100059.42;105443;1280;25523;-78
2022/04/22 05:40:21;;;;;;;6.10;5.50;;;;;;;10.00;66.12;100060.96;105877;1274;22557;-75
2022/04/22 05:42:49;;;;;;;16.70;12.60;;;;;;;10.01;66.08;100064.11;105869;1274;22565;-78
2022/04/22 05:45:16;;;;;;;7.50;6.00;;;;;;;10.05;66.00;100057.05;106169;1274;22596;-76
2022/04/22 05:47:44;;;;;;;6.40;5.80;;;;;;;10.08;65.91;100059.64;106104;1274;25343;-75
2022/04/22 05:50:13;;;;;;;6.90;5.50;;;;;;;10.12;65.73;100066.98;106140;1274;22560;-79
2022/04/22 05:52:39;;;;;;;5.80;5.20;;;;;;;10.13;65.55;100066.45;105959;1277;22585;-76
2022/04/22 05:55:09;;;;;;;7.60;6.80;;;;;;;10.15;65.37;100066.94;106048;1274;22534;-77
2022/04/22 05:57:36;;;;;;;6.70;6.10;;;;;;;10.17;65.22;100071.14;105834;1273;22569;-76
2022/04/22 06:00:14;;;;;;;6.40;5.80;;;;;;;10.21;65.14;100073.21;105791;1274;25532;-76
2022/04/22 06:02:42;;;;;;;6.20;5.60;;;;;;;10.21;64.97;100075.66;105995;1273;22592;-77
2022/04/22 06:05:12;;;;;;;10.10;6.10;;;;;;;10.21;64.69;100072.67;106062;1274;22872;-82
2022/04/22 06:07:40;;;;;;;7.20;5.80;;;;;;;10.20;64.44;100080.27;105962;1274;25270;-77
2022/04/22 06:12:54;;;;;;;7.30;5.40;;;;;;;10.24;64.19;100076.86;105764;1279;22570;-78
2022/04/22 06:15:20;;;;;;;6.00;5.40;;;;;;;10.26;63.83;100079.48;105610;1280;22614;-78
2022/04/22 06:17:47;;;;;;;9.20;7.40;;;;;;;10.29;63.53;100079.63;105973;1279;22527;-80
2022/04/22 06:20:14;;;;;;;9.40;6.60;;;;;;;10.30;63.34;100079.79;106012;1279;22554;-77
2022/04/22 06:22:41;;;;;;;6.70;5.70;;;;;;;10.33;63.33;100080.45;105622;1279;23035;-78
2022/04/22 06:25:09;;;;;;;6.00;5.40;;;;;;;10.36;63.33;100087.27;105690;1279;24801;-80
2022/04/22 06:27:38;;;;;;;6.10;5.50;;;;;;;10.39;63.14;100086.88;105546;1280;25242;-78
2022/04/22 06:30:06;;;;;;;6.50;5.30;;;;;;;10.46;63.12;100089.27;105694;1279;24271;-77
2022/04/22 06:32:33;;;;;;;6.90;5.30;;;;;;;10.51;62.97;100084.80;105954;1273;25253;-77
2022/04/22 06:34:59;;;;;;;6.60;5.30;;;;;;;10.57;62.63;100080.52;106003;1274;25372;-76
2022/04/22 06:37:28;;;;;;;7.50;5.50;;;;;;;10.60;62.21;100079.92;105980;1277;22717;-77
2022/04/22 06:48:10;;;;;;;4.80;4.40;;;;;;;10.78;61.06;100083.91;106001;1273;24244;-76
2022/04/22 06:50:59;;;;;;;5.20;4.70;;;;;;;10.86;60.80;100081.66;105975;1273;22749;-77
2022/04/22 06:53:26;;;;;;;6.20;4.60;;;;;;;10.94;60.42;100089.31;106022;1273;25695;-78
2022/04/22 06:55:54;;;;;;;5.60;4.60;;;;;;;10.97;60.15;100090.85;105973;1274;25436;-74
2022/04/22 06:58:22;;;;;;;5.50;4.80;;;;;;;10.99;59.88;100090.45;105893;1274;22704;-75
2022/04/22 07:00:48;;;;;;;5.60;5.00;;;;;;;11.02;59.85;100089.35;105986;1273;22703;-77
2022/04/22 07:03:16;;;;;;;4.60;4.20;;;;;;;11.04;59.62;100086.84;105938;1273;24399;-77
2022/04/22 07:05:45;;;;;;;5.50;4.60;;;;;;;11.09;59.41;100087.66;105867;1274;25411;-76
2022/04/22 07:08:13;;;;;;;5.40;4.60;;;;;;;11.17;59.29;100086.48;106101;1273;22620;-77
2022/04/22 07:10:44;;;;;;;5.90;4.40;;;;;;;11.22;59.09;100084.27;105922;1275;22611;-77
2022/04/22 07:13:11;;;;;;;4.90;4.40;;;;;;;11.27;58.91;100083.31;105996;1274;24240;-77
2022/04/22 07:15:39;;;;;;;5.00;4.50;;;;;;;11.32;58.65;100087.29;105729;1273;25249;-79
2022/04/22 07:18:06;;;;;;;5.00;4.50;;;;;;;11.37;58.43;100084.73;105857;1274;25376;-79
2022/04/22 07:20:33;;;;;;;4.30;3.80;;;;;;;11.41;58.12;100083.61;106000;1274;25370;-77
2022/04/22 07:23:00;;;;;;;7.00;4.70;;;;;;;11.46;57.95;100081.75;106101;1274;24301;-77
2022/04/22 07:25:28;;;;;;;5.30;4.80;;;;;;;11.50;57.78;100086.27;106001;1274;22548;-79
2022/04/22 07:27:56;;;;;;;6.20;4.00;;;;;;;11.56;57.56;100085.48;105810;1276;22538;-79
2022/04/22 07:30:23;;;;;;;4.80;3.90;;;;;;;11.58;57.18;100087.36;106011;1274;24066;-80
2022/04/22 07:32:50;;;;;;;4.50;4.10;;;;;;;11.61;57.03;100088.89;106123;1277;25406;-79
2022/04/22 07:35:18;;;;;;;5.20;4.70;;;;;;;11.70;57.16;100086.27;106091;1274;22559;-77
2022/04/22 07:37:51;;;;;;;5.30;4.20;;;;;;;11.82;57.18;100083.22;106149;1274;24289;-78
2022/04/22 07:40:22;;;;;;;5.90;4.60;;;;;;;11.94;57.34;100089.88;106148;1273;25659;-76
2022/04/22 07:48:36;;;;;;;;;;;;;;;12.21;55.73;100084.96;106128;1274;22538;-79
2022/04/22 07:51:03;;;;;;;4.20;3.90;;;;;;;12.19;55.36;100086.59;105960;1274;25569;-78
2022/04/22 07:53:29;;;;;;;5.70;4.60;;;;;;;12.19;55.16;100087.48;106015;1274;22535;-75
2022/04/22 07:55:55;;;;;;;7.60;4.10;;;;;;;12.21;54.68;100091.84;105985;1275;25287;-73
2022/04/22 07:58:21;;;;;;;4.80;4.30;;;;;;;12.18;54.60;100089.42;106035;1273;24364;-77
2022/04/22 08:00:48;;;;;;;4.40;3.90;;;;;;;12.21;54.44;100097.50;105984;1273;22606;-82
2022/04/22 08:03:18;;;;;;;4.60;4.10;;;;;;;12.24;54.51;100100.61;106072;1274;25258;-80
2022/04/22 08:05:44;;;;;;;5.50;4.80;;;;;;;12.31;54.46;100107.52;105811;1273;22557;-81
2022/04/22 08:08:10;;;;;;;4.90;4.40;;;;;;;12.38;54.14;100113.20;106087;1274;22868;-80
2022/04/22 08:10:38;;;;;;;5.30;4.80;;;;;;;12.40;53.98;100112.28;106071;1274;22633;-79
2022/04/22 08:13:05;;;;;;;5.10;4.60;;;;;;;12.44;53.90;100116.96;105961;1274;22554;-78
2022/04/22 08:15:33;;;;;;;5.10;4.60;;;;;;;12.54;53.70;100115.88;105869;1274;22545;-79
2022/04/22 08:18:00;;;;;;;4.70;4.10;;;;;;;12.59;53.50;100117.53;106102;1274;22702;-79
2022/04/22 08:20:30;;;;;;;4.80;4.30;;;;;;;12.60;53.33;100116.63;105833;1277;22841;-80
2022/04/22 08:22:56;;;;;;;4.00;3.70;;;;;;;12.58;52.97;100117.19;105826;1277;25245;-80
2022/04/22 08:25:23;;;;;;;5.60;4.40;;;;;;;12.59;52.67;100121.77;105717;1278;22564;-78
2022/04/22 08:27:51;;;;;;;4.60;4.20;;;;;;;12.60;52.71;100126.34;105703;1277;25578;-76
2022/04/22 08:30:17;;;;;;;5.20;4.70;;;;;;;12.63;52.43;100121.86;105633;1277;24086;-77
2022/04/22 08:32:44;;;;;;;5.00;4.60;;;;;;;12.68;52.32;100123.34;105595;1277;25332;-79
2022/04/22 08:35:10;;;;;;;5.40;4.50;;;;;;;12.73;52.34;100121.81;105804;1277;23112;-78
2022/04/22 08:37:37;;;;;;;5.50;5.00;;;;;;;12.75;52.27;100121.59;105887;1277;22560;-76
2022/04/22 08:40:06;;;;;;;5.10;4.60;;;;;;;12.81;52.29;100123.23;106140;1274;24229;-83
2022/04/22 08:42:35;;;;;;;6.40;4.60;;;;;;;12.82;52.27;100126.21;105898;1277;22564;-78
2022/04/22 08:45:05;;;;;;;5.60;5.10;;;;;;;12.81;52.13;100123.23;106041;1274;25978;-77
2022/04/22 08:50:18;;;;;;;6.30;4.90;;;;;;;13.11;51.98;100108.59;106310;1273;22479;-79
2022/04/22 08:52:54;;;;;;;6.80;4.50;;;;;;;13.19;51.91;100097.95;105990;1274;24330;-78
2022/04/22 08:55:20;;;;;;;4.50;4.20;;;;;;;13.18;51.88;100102.92;105959;1274;22534;-78
2022/04/22 08:57:47;;;;;;;5.60;5.10;;;;;;;13.13;51.45;100108.00;105881;1274;22691;-78
2022/04/22 09:00:22;;;;;;;5.50;4.70;;;;;;;13.06;51.53;100111.70;105959;1274;24604;-78
2022/04/22 09:02:50;;;;;;;6.10;4.60;;;;;;;13.04;51.32;100108.91;106108;1274;25401;-78
2022/04/22 09:05:17;;;;;;;5.60;4.40;;;;;;;13.04;51.23;100114.39;106154;1277;24372;-75
2022/04/22 09:07:44;;;;;;;6.40;4.70;;;;;;;13.02;51.15;100109.48;105986;1277;25264;-79
2022/04/22 09:10:11;;;;;;;6.50;4.90;;;;;;;13.02;50.94;100107.02;105993;1274;25520;-76
2022/04/22 09:12:43;;;;;;;5.20;4.70;;;;;;;13.18;50.89;100114.41;106175;1274;24996;-78
2022/04/22 09:15:10;;;;;;;5.10;4.40;;;;;;;13.29;50.61;100119.11;106321;1274;22709;-77
2022/04/22 09:17:38;;;;;;;6.40;4.70;;;;;;;13.38;50.13;100119.60;106303;1274;24353;-78
2022/04/22 09:20:06;;;;;;;4.90;4.50;;;;;;;13.44;49.80;100118.73;106312;1274;26579;-77
2022/04/22 09:22:34;;;;;;;7.00;4.30;;;;;;;13.49;49.59;100120.21;106610;1277;22552;-79
2022/04/22 09:25:05;;;;;;;4.90;4.50;;;;;;;13.62;49.10;100121.14;106761;1274;24378;-77
2022/04/22 09:27:38;;;;;;;4.40;4.00;;;;;;;13.68;49.12;100117.81;106727;1273;22486;-76
2022/04/22 09:30:10;;;;;;;4.80;4.40;;;;;;;13.85;48.96;100122.31;106710;1274;25266;-79
2022/04/22 09:32:40;;;;;;;5.20;4.70;;;;;;;13.94;48.88;100122.23;106274;1273;22698;-79
2022/04/22 09:35:15;;;;;;;5.40;4.70;;;;;;;13.98;48.87;100121.95;106397;1274;25490;-81
2022/04/22 09:43:47;;;;;;;4.60;3.60;;;;;;;14.21;48.39;100133.90;106113;1275;25479;-78
2022/04/22 09:46:33;;;;;;;4.70;3.70;;;;;;;14.17;47.98;100134.89;105890;1275;25535;-79
2022/04/22 09:49:00;;;;;;;5.00;4.10;;;;;;;14.24;47.57;100136.13;106033;1273;24259;-79
2022/04/22 09:51:30;;;;;;;5.70;4.20;;;;;;;14.26;47.35;100131.08;106111;1273;22471;-78
2022/04/22 09:54:06;;;;;;;4.60;4.20;;;;;;;14.30;47.13;100129.74;105955;1277;25320;-78
2022/04/22 09:56:33;;;;;;;4.40;3.70;;;;;;;14.26;46.69;100129.33;106042;1273;25318;-79
2022/04/22 09:59:29;;;;;;;5.30;4.40;;;;;;;14.28;46.61;100128.77;105997;1274;24381;-77
2022/04/22 10:01:55;;;;;;;5.50;4.30;;;;;;;14.34;46.18;100126.98;105907;1274;24242;-78
2022/04/22 10:04:32;;;;;;;4.70;4.30;;;;;;;14.27;46.16;100129.65;105952;1275;25283;-79
2022/04/22 10:07:03;;;;;;;5.20;4.50;;;;;;;14.17;45.93;100130.66;105945;1274;24270;-76
2022/04/22 10:09:31;;;;;;;5.10;3.70;;;;;;;14.13;45.90;100127.92;105983;1278;22917;-79
2022/04/22 10:11:59;;;;;;;4.90;3.80;;;;;;;14.22;45.65;100129.24;106039;1274;22605;-83
2022/04/22 10:14:37;;;;;;;4.60;3.90;;;;;;;14.22;45.66;100132.11;106131;1275;24433;-82
2022/04/22 10:17:05;;;;;;;3.80;3.10;;;;;;;14.37;45.21;100133.61;105875;1277;24237;-80
2022/04/22 10:19:34;;;;;;;3.40;3.10;;;;;;;14.52;44.63;100130.18;106095;1275;22539;-74
2022/04/22 10:22:02;;;;;;;3.80;3.50;;;;;;;14.83;44.64;100129.27;106074;1277;22624;-78
2022/04/22 10:24:31;;;;;;;4.70;3.20;;;;;;;15.15;44.05;100130.95;106062;1275;25528;-80
2022/04/22 10:27:00;;;;;;;5.00;3.70;;;;;;;15.21;43.96;100128.44;106256;1274;25449;-76
2022/04/22 10:29:47;;;;;;;4.30;3.90;;;;;;;15.21;43.71;100128.98;106177;1274;25476;-78
2022/04/22 10:32:17;;;;;;;4.10;3.70;;;;;;;15.15;43.72;100128.80;106019;1277;24357;-78
2022/04/22 10:34:44;;;;;;;3.60;3.30;;;;;;;15.09;43.54;100128.98;106314;1274;22553;-77
2022/04/22 10:37:26;;;;;;;5.20;3.60;;;;;;;15.04;43.67;100134.46;106063;1274;22547;-77
2022/04/22 10:39:56;;;;;;;3.60;3.10;;;;;;;15.00;43.81;100136.55;106079;1277;22551;-81
2022/04/22 10:42:34;;;;;;;4.10;3.00;;;;;;;14.93;43.15;100137.83;106224;1274;22520;-79
2022/04/22 10:48:24;;;;;;;3.70;3.40;;;;;;;14.93;42.71;100139.44;106079;1274;25378;-74
2022/04/22 10:50:59;;;;;;;4.50;3.60;;;;;;;14.89;42.89;100133.18;105978;1274;22624;-75
2022/04/22 10:53:34;;;;;;;2.80;2.60;;;;;;;14.79;42.77;100129.92;105862;1275;22565;-77
2022/04/22 10:56:30;;;;;;;3.80;3.00;;;;;;;14.59;42.99;100132.45;106015;1274;25441;-78
2022/04/22 10:59:15;;;;;;;4.10;3.10;;;;;;;14.57;43.09;100131.62;106066;1275;25325;-79
2022/04/22 11:01:44;;;;;;;4.40;3.40;;;;;;;14.67;43.34;100127.61;106012;1274;24260;-78
2022/04/22 11:04:18;;;;;;;6.30;3.30;;;;;;;14.83;43.50;100122.17;106028;1274;24166;-76
2022/04/22 11:06:44;;;;;;;4.30;3.30;;;;;;;15.15;43.54;100116.06;105980;1275;24258;-79
2022/04/22 11:09:29;;;;;;;4.00;3.60;;;;;;;15.33;43.28;100117.23;106026;1274;22555;-77
2022/04/22 11:11:57;;;;;;;5.00;3.30;;;;;;;15.71;43.17;100107.27;106025;1274;22559;-77
2022/04/22 11:14:26;;;;;;;3.70;3.40;;;;;;;15.86;42.76;100110.64;105990;1277;22553;-77
2022/04/22 11:16:54;;;;;;;4.10;3.30;;;;;;;15.83;42.08;100116.08;106005;1274;22572;-77
2022/04/22 11:19:20;;;;;;;3.40;3.10;;;;;;;15.81;42.19;100121.62;106039;1275;24417;-78
2022/04/22 11:21:52;;;;;;;5.80;3.40;;;;;;;15.82;42.27;100118.95;106065;1274;23171;-77
2022/04/22 11:24:29;;;;;;;4.50;3.50;;;;;;;15.79;42.32;100119.39;106027;1274;23177;-80
2022/04/22 11:27:08;;;;;;;3.70;3.40;;;;;;;15.80;42.28;100122.40;105949;1274;22628;-79
2022/04/22 11:29:35;;;;;;;4.00;3.70;;;;;;;15.88;42.11;100121.94;106022;1275;25355;-78
2022/04/22 11:32:17;;;;;;;4.60;4.10;;;;;;;16.01;42.14;100117.77;105934;1274;24363;-76
2022/04/22 11:34:43;;;;;;;5.90;3.90;;;;;;;16.29;41.90;100116.77;105998;1274;24307;-79
2022/04/22 11:37:21;;;;;;;15.60;8.80;;;;;;;16.32;41.84;100116.81;105985;1274;24414;-76
2022/04/22 11:39:49;;;;;;;10.80;5.60;;;;;;;16.28;41.85;100108.62;105875;1277;22579;-77
2022/04/22 11:42:17;;;;;;;7.20;4.60;;;;;;;16.13;41.72;100113.10;105958;1274;22543;-77
2022/04/22 11:45:05;;;;;;;8.60;5.30;;;;;;;15.87;41.88;100105.65;106153;1274;22568;-79
2022/04/22 11:47:31;;;;;;;6.60;5.10;;;;;;;15.55;42.18;100116.48;105723;1281;22537;-77
2022/04/22 11:49:59;;;;;;;4.10;3.80;;;;;;;15.49;42.53;100111.21;105547;1280;22544;-78
2022/04/22 11:52:29;;;;;;;4.40;3.60;;;;;;;15.46;42.30;100108.80;105731;1279;25498;-77
2022/04/22 11:55:03;;;;;;;4.20;3.80;;;;;;;15.37;42.12;100108.77;105640;1281;25639;-77
2022/04/22 11:57:39;;;;;;;5.60;5.10;;;;;;;15.20;42.32;100103.48;105522;1281;22734;-76
2022/04/22 12:05:51;;;;;;;7.20;4.90;;;;;;;15.26;43.02;100094.91;105752;1280;23932;-79
2022/04/22 12:08:18;;;;;;;6.70;4.90;;;;;;;15.58;42.52;100094.04;105549;1281;22545;-80
2022/04/22 12:10:47;;;;;;;20.90;11.90;;;;;;;15.56;42.51;100091.44;105595;1281;22541;-78
2022/04/22 12:13:15;;;;;;;8.40;5.80;;;;;;;15.75;42.15;100081.73;105951;1274;24399;-82
2022/04/22 12:15:48;;;;;;;6.40;4.40;;;;;;;15.80;41.87;100078.71;106103;1274;22761;-79
2022/04/22 12:18:33;;;;;;;5.00;3.90;;;;;;;15.62;41.68;100069.41;105962;1275;25238;-79
2022/04/22 12:21:00;;;;;;;4.40;3.80;;;;;;;15.48;41.73;100064.37;106041;1274;22541;-77
2022/04/22 12:23:42;;;;;;;3.60;3.10;;;;;;;15.38;41.47;100067.75;106018;1275;25343;-76
2022/04/22 12:26:25;;;;;;;3.60;3.30;;;;;;;15.62;41.37;100067.27;106263;1274;24740;-80
2022/04/22 12:29:23;;;;;;;4.70;3.80;;;;;;;15.62;41.19;100071.73;106330;1275;23297;-78